sensor_id;sensor_type;location;lat;lon;timestamp;P1;durP1;ratioP1;P2;durP2;ratioP2
41323;SDS011;27073;51.128;4.220;2023-07-13T00:02:06;10.43;;;2.00;;
41323;SDS011;27073;51.128;4.220;2023-07-13T00:04:32;7.70;;;1.85;;
41323;SDS011;27073;51.128;4.220;2023-07-13T00:06:58;12.07;;;2.05;;
41323;SDS011;27073;51.128;4.220;2023-07-13T00:09:23;8.32;;;1.60;;
41323;SDS011;27073;51.128;4.220;2023-07-13T00:11:50;8.93;;;2.28;;
41323;SDS011;27073;51.128;4.220;2023-07-13T00:14:18;7.82;;;2.58;;
41323;SDS011;27073;51.128;4.220;2023-07-13T00:16:44;8.38;;;1.92;;
41323;SDS011;27073;51.128;4.220;2023-07-13T00:19:11;10.43;;;2.35;;
41323;SDS011;27073;51.128;4.220;2023-07-13T00:21:38;8.82;;;2.30;;
41323;SDS011;27073;51.128;4.220;2023-07-13T00:24:05;9.50;;;1.92;;
41323;SDS011;27073;51.128;4.220;2023-07-13T00:26:31;10.82;;;2.13;;
41323;SDS011;27073;51.128;4.220;2023-07-13T00:28:57;8.48;;;1.67;;
41323;SDS011;27073;51.128;4.220;2023-07-13T00:31:23;8.65;;;2.10;;
41323;SDS011;27073;51.128;4.220;2023-07-13T00:33:49;9.65;;;2.33;;
41323;SDS011;27073;51.128;4.220;2023-07-13T00:36:15;11.80;;;2.10;;
41323;SDS011;27073;51.128;4.220;2023-07-13T00:38:41;7.30;;;2.22;;
41323;SDS011;27073;51.128;4.220;2023-07-13T00:41:07;7.63;;;1.92;;
41323;SDS011;27073;51.128;4.220;2023-07-13T00:43:33;6.30;;;1.80;;
41323;SDS011;27073;51.128;4.220;2023-07-13T00:46:09;11.10;;;2.75;;
41323;SDS011;27073;51.128;4.220;2023-07-13T00:48:51;8.43;;;1.90;;
41323;SDS011;27073;51.128;4.220;2023-07-13T00:51:22;11.45;;;1.90;;
41323;SDS011;27073;51.128;4.220;2023-07-13T00:53:53;8.65;;;1.75;;
41323;SDS011;27073;51.128;4.220;2023-07-13T00:56:21;7.68;;;2.38;;
41323;SDS011;27073;51.128;4.220;2023-07-13T00:58:47;14.48;;;2.50;;
41323;SDS011;27073;51.128;4.220;2023-07-13T01:01:13;11.77;;;2.85;;
41323;SDS011;27073;51.128;4.220;2023-07-13T01:03:39;7.13;;;1.90;;
41323;SDS011;27073;51.128;4.220;2023-07-13T01:06:06;10.30;;;2.83;;
41323;SDS011;27073;51.128;4.220;2023-07-13T01:08:32;11.10;;;2.88;;
41323;SDS011;27073;51.128;4.220;2023-07-13T01:10:59;9.23;;;2.20;;
41323;SDS011;27073;51.128;4.220;2023-07-13T01:13:25;10.27;;;2.30;;
41323;SDS011;27073;51.128;4.220;2023-07-13T01:15:51;7.75;;;2.15;;
41323;SDS011;27073;51.128;4.220;2023-07-13T01:18:22;9.27;;;3.35;;
41323;SDS011;27073;51.128;4.220;2023-07-13T01:20:57;10.45;;;2.70;;
41323;SDS011;27073;51.128;4.220;2023-07-13T01:23:24;9.80;;;2.05;;
41323;SDS011;27073;51.128;4.220;2023-07-13T01:25:51;9.43;;;2.20;;
41323;SDS011;27073;51.128;4.220;2023-07-13T01:28:17;9.50;;;2.28;;
41323;SDS011;27073;51.128;4.220;2023-07-13T01:30:44;11.27;;;3.00;;
41323;SDS011;27073;51.128;4.220;2023-07-13T01:33:12;10.13;;;2.45;;
41323;SDS011;27073;51.128;4.220;2023-07-13T01:35:38;8.95;;;2.80;;
41323;SDS011;27073;51.128;4.220;2023-07-13T01:38:05;14.20;;;2.60;;
41323;SDS011;27073;51.128;4.220;2023-07-13T01:40:31;13.60;;;3.33;;
41323;SDS011;27073;51.128;4.220;2023-07-13T01:42:57;11.45;;;2.75;;
41323;SDS011;27073;51.128;4.220;2023-07-13T01:45:23;10.07;;;2.10;;
41323;SDS011;27073;51.128;4.220;2023-07-13T01:47:49;10.10;;;2.22;;
41323;SDS011;27073;51.128;4.220;2023-07-13T01:50:15;13.60;;;3.40;;
41323;SDS011;27073;51.128;4.220;2023-07-13T01:52:41;11.38;;;2.53;;
41323;SDS011;27073;51.128;4.220;2023-07-13T01:55:07;10.32;;;3.35;;
41323;SDS011;27073;51.128;4.220;2023-07-13T01:57:33;10.02;;;2.40;;
41323;SDS011;27073;51.128;4.220;2023-07-13T01:59:58;16.63;;;3.42;;
41323;SDS011;27073;51.128;4.220;2023-07-13T02:02:24;10.93;;;2.50;;
41323;SDS011;27073;51.128;4.220;2023-07-13T02:04:50;13.35;;;3.05;;
41323;SDS011;27073;51.128;4.220;2023-07-13T02:07:16;10.35;;;3.22;;
41323;SDS011;27073;51.128;4.220;2023-07-13T02:09:43;10.43;;;3.00;;
41323;SDS011;27073;51.128;4.220;2023-07-13T02:12:08;13.27;;;3.00;;
41323;SDS011;27073;51.128;4.220;2023-07-13T02:14:34;10.32;;;2.35;;
41323;SDS011;27073;51.128;4.220;2023-07-13T02:17:00;10.15;;;2.60;;
41323;SDS011;27073;51.128;4.220;2023-07-13T02:19:26;10.07;;;2.20;;
41323;SDS011;27073;51.128;4.220;2023-07-13T02:21:51;11.25;;;2.80;;
41323;SDS011;27073;51.128;4.220;2023-07-13T02:24:17;13.10;;;2.63;;
41323;SDS011;27073;51.128;4.220;2023-07-13T02:26:44;15.10;;;3.22;;
41323;SDS011;27073;51.128;4.220;2023-07-13T02:29:10;11.48;;;2.78;;
41323;SDS011;27073;51.128;4.220;2023-07-13T02:31:36;11.68;;;2.97;;
41323;SDS011;27073;51.128;4.220;2023-07-13T02:34:02;7.78;;;2.53;;
41323;SDS011;27073;51.128;4.220;2023-07-13T02:36:29;11.30;;;3.15;;
41323;SDS011;27073;51.128;4.220;2023-07-13T02:38:56;10.77;;;2.47;;
41323;SDS011;27073;51.128;4.220;2023-07-13T02:41:23;13.95;;;3.03;;
41323;SDS011;27073;51.128;4.220;2023-07-13T02:43:48;11.30;;;2.92;;
41323;SDS011;27073;51.128;4.220;2023-07-13T02:46:14;14.40;;;3.50;;
41323;SDS011;27073;51.128;4.220;2023-07-13T02:48:40;15.77;;;4.10;;
41323;SDS011;27073;51.128;4.220;2023-07-13T02:51:06;11.77;;;2.65;;
41323;SDS011;27073;51.128;4.220;2023-07-13T02:53:33;12.93;;;3.45;;
41323;SDS011;27073;51.128;4.220;2023-07-13T02:55:58;15.02;;;3.30;;
41323;SDS011;27073;51.128;4.220;2023-07-13T02:58:24;12.45;;;2.95;;
41323;SDS011;27073;51.128;4.220;2023-07-13T03:00:50;12.75;;;3.35;;
41323;SDS011;27073;51.128;4.220;2023-07-13T03:03:16;10.10;;;2.78;;
41323;SDS011;27073;51.128;4.220;2023-07-13T03:05:43;12.70;;;2.97;;
41323;SDS011;27073;51.128;4.220;2023-07-13T03:08:10;10.75;;;2.65;;
41323;SDS011;27073;51.128;4.220;2023-07-13T03:10:37;12.40;;;3.47;;
41323;SDS011;27073;51.128;4.220;2023-07-13T03:13:07;10.02;;;3.22;;
41323;SDS011;27073;51.128;4.220;2023-07-13T03:15:33;16.67;;;3.00;;
41323;SDS011;27073;51.128;4.220;2023-07-13T03:17:59;12.43;;;3.15;;
41323;SDS011;27073;51.128;4.220;2023-07-13T03:20:27;22.20;;;4.22;;
41323;SDS011;27073;51.128;4.220;2023-07-13T03:22:53;10.60;;;3.30;;
41323;SDS011;27073;51.128;4.220;2023-07-13T03:25:19;10.95;;;3.50;;
41323;SDS011;27073;51.128;4.220;2023-07-13T03:27:45;13.15;;;3.17;;
41323;SDS011;27073;51.128;4.220;2023-07-13T03:30:11;12.13;;;3.22;;
41323;SDS011;27073;51.128;4.220;2023-07-13T03:32:37;17.48;;;5.22;;
41323;SDS011;27073;51.128;4.220;2023-07-13T03:35:03;13.85;;;4.35;;
41323;SDS011;27073;51.128;4.220;2023-07-13T03:37:31;14.68;;;3.30;;
41323;SDS011;27073;51.128;4.220;2023-07-13T03:39:57;12.00;;;3.42;;
41323;SDS011;27073;51.128;4.220;2023-07-13T03:42:22;12.63;;;3.20;;
41323;SDS011;27073;51.128;4.220;2023-07-13T03:44:48;11.68;;;3.25;;
41323;SDS011;27073;51.128;4.220;2023-07-13T03:47:18;11.90;;;3.20;;
41323;SDS011;27073;51.128;4.220;2023-07-13T03:49:46;11.57;;;3.50;;
41323;SDS011;27073;51.128;4.220;2023-07-13T03:52:12;13.38;;;2.83;;
41323;SDS011;27073;51.128;4.220;2023-07-13T03:54:38;17.48;;;4.80;;
41323;SDS011;27073;51.128;4.220;2023-07-13T03:57:04;16.92;;;4.13;;
41323;SDS011;27073;51.128;4.220;2023-07-13T03:59:33;13.80;;;3.35;;
41323;SDS011;27073;51.128;4.220;2023-07-13T04:02:00;17.98;;;3.67;;
41323;SDS011;27073;51.128;4.220;2023-07-13T04:04:26;17.33;;;4.15;;
41323;SDS011;27073;51.128;4.220;2023-07-13T04:06:52;13.77;;;3.42;;
41323;SDS011;27073;51.128;4.220;2023-07-13T04:09:18;17.52;;;3.67;;
41323;SDS011;27073;51.128;4.220;2023-07-13T04:11:44;18.23;;;3.58;;
41323;SDS011;27073;51.128;4.220;2023-07-13T04:14:10;13.43;;;3.65;;
41323;SDS011;27073;51.128;4.220;2023-07-13T04:16:35;13.65;;;4.03;;
41323;SDS011;27073;51.128;4.220;2023-07-13T04:19:01;15.07;;;3.20;;
41323;SDS011;27073;51.128;4.220;2023-07-13T04:21:27;17.08;;;3.88;;
41323;SDS011;27073;51.128;4.220;2023-07-13T04:23:54;13.55;;;2.88;;
41323;SDS011;27073;51.128;4.220;2023-07-13T04:26:19;12.65;;;3.08;;
41323;SDS011;27073;51.128;4.220;2023-07-13T04:28:46;13.77;;;3.03;;
41323;SDS011;27073;51.128;4.220;2023-07-13T04:31:13;12.45;;;3.33;;
41323;SDS011;27073;51.128;4.220;2023-07-13T04:33:39;16.10;;;3.60;;
41323;SDS011;27073;51.128;4.220;2023-07-13T04:36:05;17.95;;;4.22;;
41323;SDS011;27073;51.128;4.220;2023-07-13T04:38:32;16.42;;;3.47;;
41323;SDS011;27073;51.128;4.220;2023-07-13T04:41:00;13.60;;;3.55;;
41323;SDS011;27073;51.128;4.220;2023-07-13T04:43:27;15.88;;;3.78;;
41323;SDS011;27073;51.128;4.220;2023-07-13T04:45:53;15.60;;;3.75;;
41323;SDS011;27073;51.128;4.220;2023-07-13T04:48:20;18.95;;;4.45;;
41323;SDS011;27073;51.128;4.220;2023-07-13T04:50:46;12.15;;;3.25;;
41323;SDS011;27073;51.128;4.220;2023-07-13T04:53:13;13.52;;;3.33;;
41323;SDS011;27073;51.128;4.220;2023-07-13T04:55:39;13.52;;;3.60;;
41323;SDS011;27073;51.128;4.220;2023-07-13T04:58:06;15.63;;;3.97;;
41323;SDS011;27073;51.128;4.220;2023-07-13T05:00:32;13.75;;;4.10;;
41323;SDS011;27073;51.128;4.220;2023-07-13T05:02:57;10.52;;;3.10;;
41323;SDS011;27073;51.128;4.220;2023-07-13T05:05:24;15.95;;;3.30;;
41323;SDS011;27073;51.128;4.220;2023-07-13T05:07:51;14.35;;;3.42;;
41323;SDS011;27073;51.128;4.220;2023-07-13T05:10:18;12.73;;;2.95;;
41323;SDS011;27073;51.128;4.220;2023-07-13T05:12:43;15.13;;;3.70;;
41323;SDS011;27073;51.128;4.220;2023-07-13T05:15:09;13.80;;;3.97;;
41323;SDS011;27073;51.128;4.220;2023-07-13T05:17:36;12.68;;;2.90;;
41323;SDS011;27073;51.128;4.220;2023-07-13T05:20:04;13.77;;;3.78;;
41323;SDS011;27073;51.128;4.220;2023-07-13T05:22:30;17.85;;;3.05;;
41323;SDS011;27073;51.128;4.220;2023-07-13T05:24:56;14.43;;;3.53;;
41323;SDS011;27073;51.128;4.220;2023-07-13T05:27:22;11.18;;;3.25;;
41323;SDS011;27073;51.128;4.220;2023-07-13T05:29:48;14.27;;;3.38;;
41323;SDS011;27073;51.128;4.220;2023-07-13T05:32:14;13.63;;;3.63;;
41323;SDS011;27073;51.128;4.220;2023-07-13T05:34:40;13.35;;;3.55;;
41323;SDS011;27073;51.128;4.220;2023-07-13T05:37:06;12.13;;;3.03;;
41323;SDS011;27073;51.128;4.220;2023-07-13T05:39:32;17.05;;;4.25;;
41323;SDS011;27073;51.128;4.220;2023-07-13T05:41:58;12.95;;;3.38;;
41323;SDS011;27073;51.128;4.220;2023-07-13T05:44:24;18.77;;;4.10;;
41323;SDS011;27073;51.128;4.220;2023-07-13T05:46:49;13.80;;;3.92;;
41323;SDS011;27073;51.128;4.220;2023-07-13T05:49:15;20.58;;;4.65;;
41323;SDS011;27073;51.128;4.220;2023-07-13T05:51:43;14.70;;;3.42;;
41323;SDS011;27073;51.128;4.220;2023-07-13T05:54:08;13.48;;;3.55;;
41323;SDS011;27073;51.128;4.220;2023-07-13T05:56:34;16.95;;;4.15;;
41323;SDS011;27073;51.128;4.220;2023-07-13T05:59:00;17.17;;;4.15;;
41323;SDS011;27073;51.128;4.220;2023-07-13T06:01:26;13.57;;;2.92;;
41323;SDS011;27073;51.128;4.220;2023-07-13T06:03:51;13.25;;;3.75;;
41323;SDS011;27073;51.128;4.220;2023-07-13T06:06:17;15.95;;;3.65;;
41323;SDS011;27073;51.128;4.220;2023-07-13T06:08:43;17.77;;;4.05;;
41323;SDS011;27073;51.128;4.220;2023-07-13T06:11:17;16.73;;;4.25;;
41323;SDS011;27073;51.128;4.220;2023-07-13T06:13:47;16.45;;;3.40;;
41323;SDS011;27073;51.128;4.220;2023-07-13T06:16:13;12.35;;;3.20;;
41323;SDS011;27073;51.128;4.220;2023-07-13T06:18:40;13.60;;;3.42;;
41323;SDS011;27073;51.128;4.220;2023-07-13T06:21:13;20.10;;;3.75;;
41323;SDS011;27073;51.128;4.220;2023-07-13T06:23:41;12.73;;;3.50;;
41323;SDS011;27073;51.128;4.220;2023-07-13T06:26:07;14.50;;;3.33;;
41323;SDS011;27073;51.128;4.220;2023-07-13T06:28:34;17.70;;;3.80;;
41323;SDS011;27073;51.128;4.220;2023-07-13T06:31:01;8.98;;;3.42;;
41323;SDS011;27073;51.128;4.220;2023-07-13T06:33:29;12.07;;;3.63;;
41323;SDS011;27073;51.128;4.220;2023-07-13T06:35:55;16.02;;;3.80;;
41323;SDS011;27073;51.128;4.220;2023-07-13T06:38:21;16.63;;;3.80;;
41323;SDS011;27073;51.128;4.220;2023-07-13T06:40:47;12.07;;;4.35;;
41323;SDS011;27073;51.128;4.220;2023-07-13T06:43:12;18.23;;;4.22;;
41323;SDS011;27073;51.128;4.220;2023-07-13T06:45:43;14.60;;;3.63;;
41323;SDS011;27073;51.128;4.220;2023-07-13T06:48:18;15.15;;;3.33;;
41323;SDS011;27073;51.128;4.220;2023-07-13T06:50:45;16.45;;;4.53;;
41323;SDS011;27073;51.128;4.220;2023-07-13T06:53:11;14.73;;;3.47;;
41323;SDS011;27073;51.128;4.220;2023-07-13T06:55:38;12.93;;;3.13;;
41323;SDS011;27073;51.128;4.220;2023-07-13T06:58:04;14.13;;;3.63;;
41323;SDS011;27073;51.128;4.220;2023-07-13T07:00:31;16.42;;;3.65;;
41323;SDS011;27073;51.128;4.220;2023-07-13T07:02:56;13.93;;;3.17;;
41323;SDS011;27073;51.128;4.220;2023-07-13T07:05:22;14.50;;;4.05;;
41323;SDS011;27073;51.128;4.220;2023-07-13T07:07:51;18.23;;;4.18;;
41323;SDS011;27073;51.128;4.220;2023-07-13T07:10:19;12.10;;;3.22;;
41323;SDS011;27073;51.128;4.220;2023-07-13T07:12:45;15.82;;;3.83;;
41323;SDS011;27073;51.128;4.220;2023-07-13T07:15:11;18.65;;;4.97;;
41323;SDS011;27073;51.128;4.220;2023-07-13T07:17:38;16.67;;;3.45;;
41323;SDS011;27073;51.128;4.220;2023-07-13T07:20:03;17.23;;;4.30;;
41323;SDS011;27073;51.128;4.220;2023-07-13T07:22:30;16.38;;;3.50;;
41323;SDS011;27073;51.128;4.220;2023-07-13T07:24:56;17.83;;;4.57;;
41323;SDS011;27073;51.128;4.220;2023-07-13T07:27:22;13.00;;;2.97;;
41323;SDS011;27073;51.128;4.220;2023-07-13T07:29:48;13.75;;;3.90;;
41323;SDS011;27073;51.128;4.220;2023-07-13T07:32:14;12.27;;;3.35;;
41323;SDS011;27073;51.128;4.220;2023-07-13T07:34:40;13.27;;;3.17;;
41323;SDS011;27073;51.128;4.220;2023-07-13T07:37:05;18.08;;;3.72;;
41323;SDS011;27073;51.128;4.220;2023-07-13T07:39:31;13.98;;;3.58;;
41323;SDS011;27073;51.128;4.220;2023-07-13T07:41:57;12.02;;;3.42;;
41323;SDS011;27073;51.128;4.220;2023-07-13T07:44:23;19.75;;;4.20;;
41323;SDS011;27073;51.128;4.220;2023-07-13T07:46:48;20.42;;;3.88;;
41323;SDS011;27073;51.128;4.220;2023-07-13T07:49:14;15.45;;;3.67;;
41323;SDS011;27073;51.128;4.220;2023-07-13T07:51:40;16.70;;;4.32;;
41323;SDS011;27073;51.128;4.220;2023-07-13T07:54:06;11.38;;;3.40;;
41323;SDS011;27073;51.128;4.220;2023-07-13T07:56:32;14.88;;;3.83;;
41323;SDS011;27073;51.128;4.220;2023-07-13T07:58:58;10.60;;;3.05;;
41323;SDS011;27073;51.128;4.220;2023-07-13T08:01:23;19.27;;;3.95;;
41323;SDS011;27073;51.128;4.220;2023-07-13T08:03:49;11.50;;;3.85;;
41323;SDS011;27073;51.128;4.220;2023-07-13T08:06:15;12.75;;;3.97;;
41323;SDS011;27073;51.128;4.220;2023-07-13T08:08:41;13.30;;;3.72;;
41323;SDS011;27073;51.128;4.220;2023-07-13T08:11:07;14.50;;;4.07;;
41323;SDS011;27073;51.128;4.220;2023-07-13T08:13:34;13.60;;;3.47;;
41323;SDS011;27073;51.128;4.220;2023-07-13T08:16:00;12.52;;;4.00;;
41323;SDS011;27073;51.128;4.220;2023-07-13T08:18:26;17.80;;;3.78;;
41323;SDS011;27073;51.128;4.220;2023-07-13T08:20:53;13.00;;;3.72;;
41323;SDS011;27073;51.128;4.220;2023-07-13T08:23:21;11.70;;;3.38;;
41323;SDS011;27073;51.128;4.220;2023-07-13T08:25:51;13.32;;;3.22;;
41323;SDS011;27073;51.128;4.220;2023-07-13T08:28:19;12.60;;;3.25;;
41323;SDS011;27073;51.128;4.220;2023-07-13T08:30:45;8.52;;;3.25;;
41323;SDS011;27073;51.128;4.220;2023-07-13T08:33:17;11.02;;;3.38;;
41323;SDS011;27073;51.128;4.220;2023-07-13T08:35:47;9.70;;;3.08;;
41323;SDS011;27073;51.128;4.220;2023-07-13T08:38:13;11.57;;;2.47;;
41323;SDS011;27073;51.128;4.220;2023-07-13T08:40:40;10.43;;;3.55;;
41323;SDS011;27073;51.128;4.220;2023-07-13T08:43:16;13.68;;;3.72;;
41323;SDS011;27073;51.128;4.220;2023-07-13T08:46:19;10.75;;;2.97;;
41323;SDS011;27073;51.128;4.220;2023-07-13T08:48:44;11.82;;;3.38;;
41323;SDS011;27073;51.128;4.220;2023-07-13T08:53:50;10.38;;;2.80;;
41323;SDS011;27073;51.128;4.220;2023-07-13T08:56:28;9.70;;;2.80;;
41323;SDS011;27073;51.128;4.220;2023-07-13T08:58:56;10.38;;;3.95;;
41323;SDS011;27073;51.128;4.220;2023-07-13T09:01:45;10.48;;;3.03;;
41323;SDS011;27073;51.128;4.220;2023-07-13T09:04:36;12.45;;;3.08;;
41323;SDS011;27073;51.128;4.220;2023-07-13T09:07:07;9.73;;;3.10;;
41323;SDS011;27073;51.128;4.220;2023-07-13T09:09:52;10.30;;;2.83;;
41323;SDS011;27073;51.128;4.220;2023-07-13T09:12:35;10.45;;;2.83;;
41323;SDS011;27073;51.128;4.220;2023-07-13T09:15:23;11.88;;;2.80;;
41323;SDS011;27073;51.128;4.220;2023-07-13T09:18:03;10.60;;;2.70;;
41323;SDS011;27073;51.128;4.220;2023-07-13T09:20:37;9.95;;;2.38;;
41323;SDS011;27073;51.128;4.220;2023-07-13T09:23:27;12.07;;;3.22;;
41323;SDS011;27073;51.128;4.220;2023-07-13T09:26:19;6.72;;;2.20;;
41323;SDS011;27073;51.128;4.220;2023-07-13T09:28:45;8.88;;;2.10;;
41323;SDS011;27073;51.128;4.220;2023-07-13T09:31:19;10.98;;;2.55;;
41323;SDS011;27073;51.128;4.220;2023-07-13T09:33:48;6.85;;;2.28;;
41323;SDS011;27073;51.128;4.220;2023-07-13T09:36:20;8.23;;;2.20;;
41323;SDS011;27073;51.128;4.220;2023-07-13T09:41:53;8.20;;;2.33;;
41323;SDS011;27073;51.128;4.220;2023-07-13T09:44:50;10.15;;;2.70;;
41323;SDS011;27073;51.128;4.220;2023-07-13T09:47:23;9.45;;;2.80;;
41323;SDS011;27073;51.128;4.220;2023-07-13T09:50:02;9.50;;;2.50;;
41323;SDS011;27073;51.128;4.220;2023-07-13T09:52:47;5.85;;;2.00;;
41323;SDS011;27073;51.128;4.220;2023-07-13T09:55:25;10.20;;;2.92;;
41323;SDS011;27073;51.128;4.220;2023-07-13T09:57:55;6.13;;;2.28;;
41323;SDS011;27073;51.128;4.220;2023-07-13T10:00:26;7.47;;;2.53;;
41323;SDS011;27073;51.128;4.220;2023-07-13T10:05:44;4.70;;;2.23;;
41323;SDS011;27073;51.128;4.220;2023-07-13T10:08:27;16.00;;;2.90;;
41323;SDS011;27073;51.128;4.220;2023-07-13T10:11:29;9.43;;;2.53;;
41323;SDS011;27073;51.128;4.220;2023-07-13T10:16:45;7.07;;;1.85;;
41323;SDS011;27073;51.128;4.220;2023-07-13T10:21:59;6.13;;;2.17;;
41323;SDS011;27073;51.128;4.220;2023-07-13T10:24:32;6.20;;;1.75;;
41323;SDS011;27073;51.128;4.220;2023-07-13T10:29:36;4.40;;;2.05;;
41323;SDS011;27073;51.128;4.220;2023-07-13T10:32:11;7.13;;;1.70;;
41323;SDS011;27073;51.128;4.220;2023-07-13T10:34:38;4.60;;;1.70;;
41323;SDS011;27073;51.128;4.220;2023-07-13T10:37:07;6.70;;;1.77;;
41323;SDS011;27073;51.128;4.220;2023-07-13T10:39:41;7.90;;;2.45;;
41323;SDS011;27073;51.128;4.220;2023-07-13T10:42:08;7.10;;;2.03;;
41323;SDS011;27073;51.128;4.220;2023-07-13T10:44:38;7.22;;;2.00;;
41323;SDS011;27073;51.128;4.220;2023-07-13T10:47:06;6.72;;;1.58;;
41323;SDS011;27073;51.128;4.220;2023-07-13T10:49:36;5.60;;;1.85;;
41323;SDS011;27073;51.128;4.220;2023-07-13T10:52:04;7.18;;;1.92;;
41323;SDS011;27073;51.128;4.220;2023-07-13T10:54:31;5.30;;;1.30;;
41323;SDS011;27073;51.128;4.220;2023-07-13T10:57:10;5.93;;;1.55;;
41323;SDS011;27073;51.128;4.220;2023-07-13T10:59:42;6.50;;;1.95;;
41323;SDS011;27073;51.128;4.220;2023-07-13T11:02:21;4.32;;;1.50;;
41323;SDS011;27073;51.128;4.220;2023-07-13T11:04:52;4.55;;;2.08;;
41323;SDS011;27073;51.128;4.220;2023-07-13T11:07:30;6.43;;;1.67;;
41323;SDS011;27073;51.128;4.220;2023-07-13T11:09:58;5.13;;;1.48;;
41323;SDS011;27073;51.128;4.220;2023-07-13T11:12:49;6.80;;;1.52;;
41323;SDS011;27073;51.128;4.220;2023-07-13T11:15:43;6.32;;;1.67;;
41323;SDS011;27073;51.128;4.220;2023-07-13T11:18:22;7.72;;;2.50;;
41323;SDS011;27073;51.128;4.220;2023-07-13T11:20:50;7.15;;;2.17;;
41323;SDS011;27073;51.128;4.220;2023-07-13T11:25:51;9.30;;;3.25;;
41323;SDS011;27073;51.128;4.220;2023-07-13T11:28:19;10.35;;;3.75;;
41323;SDS011;27073;51.128;4.220;2023-07-13T11:33:23;9.95;;;4.88;;
41323;SDS011;27073;51.128;4.220;2023-07-13T11:41:21;11.07;;;6.30;;
41323;SDS011;27073;51.128;4.220;2023-07-13T11:43:54;10.27;;;5.45;;
41323;SDS011;27073;51.128;4.220;2023-07-13T11:46:27;10.93;;;6.50;;
41323;SDS011;27073;51.128;4.220;2023-07-13T11:48:53;10.15;;;4.88;;
41323;SDS011;27073;51.128;4.220;2023-07-13T11:51:33;12.75;;;5.53;;
41323;SDS011;27073;51.128;4.220;2023-07-13T11:54:02;8.68;;;4.05;;
41323;SDS011;27073;51.128;4.220;2023-07-13T11:56:39;9.00;;;4.82;;
41323;SDS011;27073;51.128;4.220;2023-07-13T11:59:06;7.18;;;3.50;;
41323;SDS011;27073;51.128;4.220;2023-07-13T12:01:33;7.45;;;3.67;;
41323;SDS011;27073;51.128;4.220;2023-07-13T12:04:02;4.93;;;3.00;;
41323;SDS011;27073;51.128;4.220;2023-07-13T12:06:32;8.70;;;2.72;;
41323;SDS011;27073;51.128;4.220;2023-07-13T12:09:10;6.18;;;2.80;;
41323;SDS011;27073;51.128;4.220;2023-07-13T12:11:42;5.70;;;2.55;;
41323;SDS011;27073;51.128;4.220;2023-07-13T12:14:14;5.20;;;2.00;;
41323;SDS011;27073;51.128;4.220;2023-07-13T12:16:41;5.80;;;3.00;;
41323;SDS011;27073;51.128;4.220;2023-07-13T12:19:14;4.68;;;2.08;;
41323;SDS011;27073;51.128;4.220;2023-07-13T12:21:42;3.83;;;1.92;;
41323;SDS011;27073;51.128;4.220;2023-07-13T12:24:16;8.18;;;2.67;;
41323;SDS011;27073;51.128;4.220;2023-07-13T12:26:44;4.45;;;2.03;;
41323;SDS011;27073;51.128;4.220;2023-07-13T12:29:16;3.70;;;1.90;;
41323;SDS011;27073;51.128;4.220;2023-07-13T12:31:43;5.13;;;2.28;;
41323;SDS011;27073;51.128;4.220;2023-07-13T12:34:15;6.00;;;2.20;;
41323;SDS011;27073;51.128;4.220;2023-07-13T12:39:22;7.45;;;2.70;;
41323;SDS011;27073;51.128;4.220;2023-07-13T12:42:24;4.50;;;2.30;;
41323;SDS011;27073;51.128;4.220;2023-07-13T12:45:03;7.65;;;2.40;;
41323;SDS011;27073;51.128;4.220;2023-07-13T12:47:40;10.25;;;2.70;;
41323;SDS011;27073;51.128;4.220;2023-07-13T12:50:15;6.25;;;2.35;;
41323;SDS011;27073;51.128;4.220;2023-07-13T12:52:43;4.28;;;2.25;;
41323;SDS011;27073;51.128;4.220;2023-07-13T12:55:19;5.45;;;2.38;;
41323;SDS011;27073;51.128;4.220;2023-07-13T12:57:50;4.85;;;2.08;;
41323;SDS011;27073;51.128;4.220;2023-07-13T13:03:15;5.18;;;2.03;;
41323;SDS011;27073;51.128;4.220;2023-07-13T13:08:46;4.93;;;1.80;;
41323;SDS011;27073;51.128;4.220;2023-07-13T13:11:16;4.65;;;2.45;;
41323;SDS011;27073;51.128;4.220;2023-07-13T13:13:43;5.03;;;2.10;;
41323;SDS011;27073;51.128;4.220;2023-07-13T13:16:20;6.45;;;2.28;;
41323;SDS011;27073;51.128;4.220;2023-07-13T13:18:56;7.43;;;2.25;;
41323;SDS011;27073;51.128;4.220;2023-07-13T13:21:27;6.32;;;2.03;;
41323;SDS011;27073;51.128;4.220;2023-07-13T13:23:53;9.15;;;2.25;;
41323;SDS011;27073;51.128;4.220;2023-07-13T13:26:19;4.55;;;2.20;;
41323;SDS011;27073;51.128;4.220;2023-07-13T13:28:47;5.03;;;2.03;;
41323;SDS011;27073;51.128;4.220;2023-07-13T13:31:13;8.20;;;2.20;;
41323;SDS011;27073;51.128;4.220;2023-07-13T13:33:41;6.43;;;2.13;;
41323;SDS011;27073;51.128;4.220;2023-07-13T13:36:15;5.95;;;2.00;;
41323;SDS011;27073;51.128;4.220;2023-07-13T13:38:42;8.57;;;2.05;;
41323;SDS011;27073;51.128;4.220;2023-07-13T13:41:09;6.88;;;2.15;;
41323;SDS011;27073;51.128;4.220;2023-07-13T13:43:38;3.50;;;1.58;;
41323;SDS011;27073;51.128;4.220;2023-07-13T13:46:09;5.95;;;2.03;;
41323;SDS011;27073;51.128;4.220;2023-07-13T13:48:50;5.40;;;2.08;;
41323;SDS011;27073;51.128;4.220;2023-07-13T13:51:17;4.68;;;1.67;;
41323;SDS011;27073;51.128;4.220;2023-07-13T13:53:45;5.22;;;1.92;;
41323;SDS011;27073;51.128;4.220;2023-07-13T13:56:15;5.20;;;1.60;;
41323;SDS011;27073;51.128;4.220;2023-07-13T13:58:42;9.70;;;1.95;;
41323;SDS011;27073;51.128;4.220;2023-07-13T14:01:12;5.07;;;1.52;;
41323;SDS011;27073;51.128;4.220;2023-07-13T14:03:42;6.18;;;2.47;;
41323;SDS011;27073;51.128;4.220;2023-07-13T14:06:15;5.53;;;1.60;;
41323;SDS011;27073;51.128;4.220;2023-07-13T14:08:41;5.90;;;1.50;;
41323;SDS011;27073;51.128;4.220;2023-07-13T14:11:18;6.03;;;1.45;;
41323;SDS011;27073;51.128;4.220;2023-07-13T14:13:48;7.65;;;1.98;;
41323;SDS011;27073;51.128;4.220;2023-07-13T14:16:20;4.07;;;1.40;;
41323;SDS011;27073;51.128;4.220;2023-07-13T14:18:48;6.10;;;1.70;;
41323;SDS011;27073;51.128;4.220;2023-07-13T14:21:15;8.27;;;2.38;;
41323;SDS011;27073;51.128;4.220;2023-07-13T14:23:43;4.90;;;1.63;;
41323;SDS011;27073;51.128;4.220;2023-07-13T14:26:17;6.97;;;1.60;;
41323;SDS011;27073;51.128;4.220;2023-07-13T14:28:45;6.10;;;1.65;;
41323;SDS011;27073;51.128;4.220;2023-07-13T14:31:13;3.30;;;1.50;;
41323;SDS011;27073;51.128;4.220;2023-07-13T14:33:41;5.13;;;2.28;;
41323;SDS011;27073;51.128;4.220;2023-07-13T14:36:41;7.55;;;2.20;;
41323;SDS011;27073;51.128;4.220;2023-07-13T14:39:05;5.80;;;1.90;;
41323;SDS011;27073;51.128;4.220;2023-07-13T14:41:39;6.28;;;1.55;;
41323;SDS011;27073;51.128;4.220;2023-07-13T14:44:24;5.55;;;1.50;;
41323;SDS011;27073;51.128;4.220;2023-07-13T14:46:54;4.85;;;1.58;;
41323;SDS011;27073;51.128;4.220;2023-07-13T14:51:50;6.95;;;2.30;;
41323;SDS011;27073;51.128;4.220;2023-07-13T14:54:16;4.85;;;2.17;;
41323;SDS011;27073;51.128;4.220;2023-07-13T14:56:42;4.68;;;1.63;;
41323;SDS011;27073;51.128;4.220;2023-07-13T14:59:07;4.47;;;1.67;;
41323;SDS011;27073;51.128;4.220;2023-07-13T15:01:34;5.75;;;1.70;;
41323;SDS011;27073;51.128;4.220;2023-07-13T15:04:01;6.55;;;1.63;;
41323;SDS011;27073;51.128;4.220;2023-07-13T15:06:27;5.03;;;1.55;;
41323;SDS011;27073;51.128;4.220;2023-07-13T15:08:54;4.40;;;1.42;;
41323;SDS011;27073;51.128;4.220;2023-07-13T15:11:20;3.80;;;1.35;;
41323;SDS011;27073;51.128;4.220;2023-07-13T15:13:47;4.25;;;1.40;;
41323;SDS011;27073;51.128;4.220;2023-07-13T15:16:18;7.57;;;2.10;;
41323;SDS011;27073;51.128;4.220;2023-07-13T15:18:48;7.53;;;1.77;;
41323;SDS011;27073;51.128;4.220;2023-07-13T15:21:20;5.35;;;1.58;;
41323;SDS011;27073;51.128;4.220;2023-07-13T15:23:47;5.97;;;1.60;;
41323;SDS011;27073;51.128;4.220;2023-07-13T15:26:14;6.32;;;2.00;;
41323;SDS011;27073;51.128;4.220;2023-07-13T15:28:44;5.68;;;1.98;;
41323;SDS011;27073;51.128;4.220;2023-07-13T15:31:17;5.70;;;1.75;;